sensor_id;sensor_type;location;lat;lon;timestamp;pressure;altitude;pressure_sealevel;temperature;humidity
16834;BME280;8533;48.426;10.868;2023-03-01T00:01:29;96755.09;;;-0.11;100.00
16834;BME280;8533;48.426;10.868;2023-03-01T00:03:57;96754.77;;;-0.12;100.00
16834;BME280;8533;48.426;10.868;2023-03-01T00:06:27;96756.69;;;-0.14;100.00
16834;BME280;8533;48.426;10.868;2023-03-01T00:08:55;96755.08;;;-0.15;100.00
16834;BME280;8533;48.426;10.868;2023-03-01T00:11:31;96747.37;;;-0.15;100.00
16834;BME280;8533;48.426;10.868;2023-03-01T00:13:58;96744.19;;;-0.17;100.00
16834;BME280;8533;48.426;10.868;2023-03-01T00:16:35;96745.80;;;-0.16;100.00
16834;BME280;8533;48.426;10.868;2023-03-01T00:18:59;96743.38;;;-0.18;100.00
16834;BME280;8533;48.426;10.868;2023-03-01T00:21:27;96741.92;;;-0.20;100.00
16834;BME280;8533;48.426;10.868;2023-03-01T00:23:56;96746.74;;;-0.21;100.00
16834;BME280;8533;48.426;10.868;2023-03-01T00:26:26;96743.37;;;-0.22;100.00
16834;BME280;8533;48.426;10.868;2023-03-01T00:28:54;96726.03;;;-0.28;100.00
16834;BME280;8533;48.426;10.868;2023-03-01T00:31:27;96741.60;;;-0.21;100.00
16834;BME280;8533;48.426;10.868;2023-03-01T00:33:57;96734.23;;;-0.24;100.00
16834;BME280;8533;48.426;10.868;2023-03-01T00:36:33;96734.38;;;-0.22;100.00
16834;BME280;8533;48.426;10.868;2023-03-01T00:38:56;96728.75;;;-0.21;100.00
16834;BME280;8533;48.426;10.868;2023-03-01T00:41:23;96728.75;;;-0.21;100.00
16834;BME280;8533;48.426;10.868;2023-03-01T00:43:53;96729.56;;;-0.21;100.00
16834;BME280;8533;48.426;10.868;2023-03-01T00:46:24;96733.25;;;-0.19;100.00
16834;BME280;8533;48.426;10.868;2023-03-01T00:48:51;96724.58;;;-0.22;100.00
16834;BME280;8533;48.426;10.868;2023-03-01T00:51:22;96722.34;;;-0.25;100.00
16834;BME280;8533;48.426;10.868;2023-03-01T00:53:55;96719.59;;;-0.24;100.00
16834;BME280;8533;48.426;10.868;2023-03-01T00:56:23;96713.36;;;-0.25;100.00
16834;BME280;8533;48.426;10.868;2023-03-01T00:58:51;96716.86;;;-0.22;100.00
16834;BME280;8533;48.426;10.868;2023-03-01T01:01:28;96706.91;;;-0.21;100.00
16834;BME280;8533;48.426;10.868;2023-03-01T01:03:57;96707.41;;;-0.26;100.00
16834;BME280;8533;48.426;10.868;2023-03-01T01:06:27;96704.03;;;-0.26;100.00
16834;BME280;8533;48.426;10.868;2023-03-01T01:08:55;96700.81;;;-0.28;100.00
16834;BME280;8533;48.426;10.868;2023-03-01T01:11:25;96704.84;;;-0.26;100.00
16834;BME280;8533;48.426;10.868;2023-03-01T01:13:53;96704.81;;;-0.22;100.00
16834;BME280;8533;48.426;10.868;2023-03-01T01:16:22;96698.06;;;-0.23;100.00
16834;BME280;8533;48.426;10.868;2023-03-01T01:18:50;96693.59;;;-0.25;100.00
16834;BME280;8533;48.426;10.868;2023-03-01T01:21:21;96690.38;;;-0.27;100.00
16834;BME280;8533;48.426;10.868;2023-03-01T01:23:50;96692.15;;;-0.27;100.00
16834;BME280;8533;48.426;10.868;2023-03-01T01:26:21;96687.48;;;-0.32;100.00
16834;BME280;8533;48.426;10.868;2023-03-01T01:28:49;96687.83;;;-0.35;100.00
16834;BME280;8533;48.426;10.868;2023-03-01T01:31:18;96686.37;;;-0.37;100.00
16834;BME280;8533;48.426;10.868;2023-03-01T01:33:45;96688.47;;;-0.33;100.00
16834;BME280;8533;48.426;10.868;2023-03-01T01:36:13;96683.97;;;-0.35;100.00
16834;BME280;8533;48.426;10.868;2023-03-01T01:38:40;96675.45;;;-0.35;100.00
16834;BME280;8533;48.426;10.868;2023-03-01T01:41:11;96672.59;;;-0.41;100.00
16834;BME280;8533;48.426;10.868;2023-03-01T01:43:41;96670.31;;;-0.40;100.00
16834;BME280;8533;48.426;10.868;2023-03-01T01:46:20;96662.95;;;-0.43;100.00
16834;BME280;8533;48.426;10.868;2023-03-01T01:48:45;96664.23;;;-0.43;100.00
16834;BME280;8533;48.426;10.868;2023-03-01T01:51:18;96668.89;;;-0.42;100.00
16834;BME280;8533;48.426;10.868;2023-03-01T01:53:49;96664.88;;;-0.45;100.00
16834;BME280;8533;48.426;10.868;2023-03-01T01:56:17;96669.04;;;-0.48;100.00
16834;BME280;8533;48.426;10.868;2023-03-01T01:58:46;96664.06;;;-0.45;100.00
16834;BME280;8533;48.426;10.868;2023-03-01T02:01:14;96662.48;;;-0.50;100.00
16834;BME280;8533;48.426;10.868;2023-03-01T02:03:43;96669.70;;;-0.50;100.00
16834;BME280;8533;48.426;10.868;2023-03-01T02:06:27;96668.09;;;-0.51;100.00
16834;BME280;8533;48.426;10.868;2023-03-01T02:08:52;96668.73;;;-0.53;100.00
16834;BME280;8533;48.426;10.868;2023-03-01T02:11:20;96669.05;;;-0.56;100.00
16834;BME280;8533;48.426;10.868;2023-03-01T02:13:48;96669.85;;;-0.55;100.00
16834;BME280;8533;48.426;10.868;2023-03-01T02:16:16;96658.77;;;-0.56;100.00
16834;BME280;8533;48.426;10.868;2023-03-01T02:18:44;96660.06;;;-0.56;100.00
16834;BME280;8533;48.426;10.868;2023-03-01T02:24:03;96661.34;;;-0.56;100.00
16834;BME280;8533;48.426;10.868;2023-03-01T02:29:33;96650.78;;;-0.65;100.00
16834;BME280;8533;48.426;10.868;2023-03-01T02:32:02;96648.70;;;-0.65;100.00
16834;BME280;8533;48.426;10.868;2023-03-01T02:34:31;96652.23;;;-0.66;100.00
16834;BME280;8533;48.426;10.868;2023-03-01T02:37:13;96644.66;;;-0.64;100.00
16834;BME280;8533;48.426;10.868;2023-03-01T02:39:47;96638.88;;;-0.62;100.00
16834;BME280;8533;48.426;10.868;2023-03-01T02:42:21;96636.47;;;-0.63;100.00
16834;BME280;8533;48.426;10.868;2023-03-01T02:44:46;96642.91;;;-0.59;100.00
16834;BME280;8533;48.426;10.868;2023-03-01T02:47:13;96639.22;;;-0.57;100.00
16834;BME280;8533;48.426;10.868;2023-03-01T02:49:40;96639.37;;;-0.58;100.00
16834;BME280;8533;48.426;10.868;2023-03-01T02:54:48;96635.04;;;-0.58;100.00
16834;BME280;8533;48.426;10.868;2023-03-01T02:57:14;96630.54;;;-0.60;100.00
16834;BME280;8533;48.426;10.868;2023-03-01T02:59:43;96637.27;;;-0.55;100.00
16834;BME280;8533;48.426;10.868;2023-03-01T03:02:24;96634.85;;;-0.56;100.00
16834;BME280;8533;48.426;10.868;2023-03-01T03:05:10;96629.23;;;-0.56;100.00
16834;BME280;8533;48.426;10.868;2023-03-01T03:07:40;96633.09;;;-0.56;100.00
16834;BME280;8533;48.426;10.868;2023-03-01T03:10:11;96626.66;;;-0.56;100.00
16834;BME280;8533;48.426;10.868;2023-03-01T03:12:38;96626.66;;;-0.56;100.00
16834;BME280;8533;48.426;10.868;2023-03-01T03:15:07;96626.38;;;-0.57;100.00
16834;BME280;8533;48.426;10.868;2023-03-01T03:17:40;96632.13;;;-0.55;100.00
16834;BME280;8533;48.426;10.868;2023-03-01T03:20:10;96617.52;;;-0.54;100.00
16834;BME280;8533;48.426;10.868;2023-03-01T03:22:40;96618.16;;;-0.56;100.00
16834;BME280;8533;48.426;10.868;2023-03-01T03:25:08;96620.58;;;-0.51;100.00
16834;BME280;8533;48.426;10.868;2023-03-01T03:27:37;96617.04;;;-0.54;100.00
16834;BME280;8533;48.426;10.868;2023-03-01T03:30:06;96616.72;;;-0.55;100.00
16834;BME280;8533;48.426;10.868;2023-03-01T03:32:42;96612.25;;;-0.57;100.00
16834;BME280;8533;48.426;10.868;2023-03-01T03:35:29;96616.23;;;-0.54;100.00
16834;BME280;8533;48.426;10.868;2023-03-01T03:37:56;96619.15;;;-0.57;100.00
16834;BME280;8533;48.426;10.868;2023-03-01T03:40:38;96610.45;;;-0.56;100.00
16834;BME280;8533;48.426;10.868;2023-03-01T03:43:13;96611.73;;;-0.56;100.00
16834;BME280;8533;48.426;10.868;2023-03-01T03:45:38;96617.20;;;-0.55;100.00
16834;BME280;8533;48.426;10.868;2023-03-01T03:48:07;96605.03;;;-0.65;100.00
16834;BME280;8533;48.426;10.868;2023-03-01T03:50:36;96615.11;;;-0.56;100.00
16834;BME280;8533;48.426;10.868;2023-03-01T03:53:06;96609.48;;;-0.55;100.00
16834;BME280;8533;48.426;10.868;2023-03-01T03:55:34;96616.87;;;-0.56;100.00
16834;BME280;8533;48.426;10.868;2023-03-01T03:58:03;96610.96;;;-0.57;100.00
16834;BME280;8533;48.426;10.868;2023-03-01T04:00:40;96607.59;;;-0.57;100.00
16834;BME280;8533;48.426;10.868;2023-03-01T04:03:04;96602.94;;;-0.58;100.00
16834;BME280;8533;48.426;10.868;2023-03-01T04:05:32;96598.28;;;-0.58;100.00
16834;BME280;8533;48.426;10.868;2023-03-01T04:07:59;96604.03;;;-0.56;100.00
16834;BME280;8533;48.426;10.868;2023-03-01T04:10:32;96600.02;;;-0.55;100.00
16834;BME280;8533;48.426;10.868;2023-03-01T04:12:59;96598.59;;;-0.61;100.00
16834;BME280;8533;48.426;10.868;2023-03-01T04:15:27;96598.27;;;-0.62;100.00
16834;BME280;8533;48.426;10.868;2023-03-01T04:17:55;96594.58;;;-0.64;100.00
16834;BME280;8533;48.426;10.868;2023-03-01T04:20:28;96585.13;;;-0.67;100.00
16834;BME280;8533;48.426;10.868;2023-03-01T04:23:02;96585.29;;;-0.69;100.00
16834;BME280;8533;48.426;10.868;2023-03-01T04:25:31;96594.13;;;-0.75;100.00
16834;BME280;8533;48.426;10.868;2023-03-01T04:27:59;96590.46;;;-0.81;100.00
16834;BME280;8533;48.426;10.868;2023-03-01T04:30:26;96586.28;;;-0.82;100.00
16834;BME280;8533;48.426;10.868;2023-03-01T04:32:53;96574.56;;;-0.85;100.00
16834;BME280;8533;48.426;10.868;2023-03-01T04:35:21;96579.23;;;-0.92;100.00
16834;BME280;8533;48.426;10.868;2023-03-01T04:37:49;96578.92;;;-0.97;100.00
16834;BME280;8533;48.426;10.868;2023-03-01T04:40:17;96579.70;;;-1.05;100.00
16834;BME280;8533;48.426;10.868;2023-03-01T04:42:44;96579.55;;;-1.11;100.00
16834;BME280;8533;48.426;10.868;2023-03-01T04:45:12;96579.88;;;-1.19;100.00
16834;BME280;8533;48.426;10.868;2023-03-01T04:47:43;96578.29;;;-1.24;100.00
16834;BME280;8533;48.426;10.868;2023-03-01T04:50:14;96579.09;;;-1.31;100.00
16834;BME280;8533;48.426;10.868;2023-03-01T04:52:43;96581.64;;;-1.35;100.00
16834;BME280;8533;48.426;10.868;2023-03-01T04:55:11;96580.52;;;-1.41;100.00
16834;BME280;8533;48.426;10.868;2023-03-01T04:57:39;96586.77;;;-1.43;100.00
16834;BME280;8533;48.426;10.868;2023-03-01T05:00:10;96589.32;;;-1.51;100.00
16834;BME280;8533;48.426;10.868;2023-03-01T05:02:55;96579.86;;;-1.59;100.00
16834;BME280;8533;48.426;10.868;2023-03-01T05:05:28;96578.40;;;-1.62;100.00
16834;BME280;8533;48.426;10.868;2023-03-01T05:07:59;96579.06;;;-1.64;100.00
16834;BME280;8533;48.426;10.868;2023-03-01T05:10:28;96578.56;;;-1.67;100.00
16834;BME280;8533;48.426;10.868;2023-03-01T05:12:58;96575.98;;;-1.75;100.00
16834;BME280;8533;48.426;10.868;2023-03-01T05:15:27;96574.07;;;-1.73;100.00
16834;BME280;8533;48.426;10.868;2023-03-01T05:17:57;96576.31;;;-1.78;100.00
16834;BME280;8533;48.426;10.868;2023-03-01T05:20:27;96580.16;;;-1.78;100.00
16834;BME280;8533;48.426;10.868;2023-03-01T05:22:59;96572.47;;;-1.78;100.00
16834;BME280;8533;48.426;10.868;2023-03-01T05:25:25;96571.97;;;-1.82;100.00
16834;BME280;8533;48.426;10.868;2023-03-01T05:27:52;96567.95;;;-1.84;100.00
16834;BME280;8533;48.426;10.868;2023-03-01T05:30:20;96571.65;;;-1.87;100.00
16834;BME280;8533;48.426;10.868;2023-03-01T05:32:50;96572.10;;;-1.92;100.00
16834;BME280;8533;48.426;10.868;2023-03-01T05:35:21;96574.02;;;-1.94;100.00
16834;BME280;8533;48.426;10.868;2023-03-01T05:37:50;96575.12;;;-2.00;100.00
16834;BME280;8533;48.426;10.868;2023-03-01T05:40:20;96565.05;;;-1.98;100.00
16834;BME280;8533;48.426;10.868;2023-03-01T05:42:57;96573.19;;;-2.02;100.00
16834;BME280;8533;48.426;10.868;2023-03-01T05:45:23;96569.05;;;-2.03;100.00
16834;BME280;8533;48.426;10.868;2023-03-01T05:47:51;96570.63;;;-2.06;100.00
16834;BME280;8533;48.426;10.868;2023-03-01T05:50:27;96574.95;;;-2.07;100.00
16834;BME280;8533;48.426;10.868;2023-03-01T05:55:27;96575.72;;;-2.10;100.00
16834;BME280;8533;48.426;10.868;2023-03-01T05:57:57;96577.33;;;-2.13;100.00
16834;BME280;8533;48.426;10.868;2023-03-01T06:00:25;96581.14;;;-2.17;100.00
16834;BME280;8533;48.426;10.868;2023-03-01T06:02:54;96578.44;;;-2.20;100.00
16834;BME280;8533;48.426;10.868;2023-03-01T06:05:21;96583.08;;;-2.19;100.00
16834;BME280;8533;48.426;10.868;2023-03-01T06:07:49;96588.03;;;-2.22;100.00
16834;BME280;8533;48.426;10.868;2023-03-01T06:10:19;96585.80;;;-2.21;100.00
16834;BME280;8533;48.426;10.868;2023-03-01T06:12:47;96580.02;;;-2.27;100.00
16834;BME280;8533;48.426;10.868;2023-03-01T06:15:16;96582.58;;;-2.27;100.00
16834;BME280;8533;48.426;10.868;2023-03-01T06:17:44;96583.49;;;-2.32;100.00
16834;BME280;8533;48.426;10.868;2023-03-01T06:20:23;96586.23;;;-2.29;100.00
16834;BME280;8533;48.426;10.868;2023-03-01T06:22:47;96581.11;;;-2.29;100.00
16834;BME280;8533;48.426;10.868;2023-03-01T06:25:18;96589.60;;;-2.29;100.00
16834;BME280;8533;48.426;10.868;2023-03-01T06:27:47;96588.29;;;-2.33;100.00
16834;BME280;8533;48.426;10.868;2023-03-01T06:30:18;96587.52;;;-2.29;100.00
16834;BME280;8533;48.426;10.868;2023-03-01T06:32:46;96589.27;;;-2.30;100.00
16834;BME280;8533;48.426;10.868;2023-03-01T06:35:15;96591.69;;;-2.28;100.00
16834;BME280;8533;48.426;10.868;2023-03-01T06:37:47;96592.64;;;-2.25;100.00
16834;BME280;8533;48.426;10.868;2023-03-01T06:40:15;96593.92;;;-2.25;100.00
16834;BME280;8533;48.426;10.868;2023-03-01T06:42:47;96597.28;;;-2.25;100.00
16834;BME280;8533;48.426;10.868;2023-03-01T06:45:17;96590.77;;;-2.19;100.00
16834;BME280;8533;48.426;10.868;2023-03-01T06:47:46;96593.80;;;-2.20;100.00
16834;BME280;8533;48.426;10.868;2023-03-01T06:50:15;96596.70;;;-2.19;100.00
16834;BME280;8533;48.426;10.868;2023-03-01T06:52:43;96593.51;;;-2.13;100.00
16834;BME280;8533;48.426;10.868;2023-03-01T06:55:12;96594.16;;;-2.11;100.00
16834;BME280;8533;48.426;10.868;2023-03-01T06:57:39;96591.93;;;-2.06;100.00
16834;BME280;8533;48.426;10.868;2023-03-01T07:00:08;96593.36;;;-2.07;100.00
16834;BME280;8533;48.426;10.868;2023-03-01T07:02:36;96591.00;;;-1.97;100.00
16834;BME280;8533;48.426;10.868;2023-03-01T07:05:04;96586.85;;;-1.89;100.00
16834;BME280;8533;48.426;10.868;2023-03-01T07:07:32;96584.94;;;-1.83;100.00
16834;BME280;8533;48.426;10.868;2023-03-01T07:10:00;96577.89;;;-1.77;100.00
16834;BME280;8533;48.426;10.868;2023-03-01T07:12:27;96581.63;;;-1.64;100.00
16834;BME280;8533;48.426;10.868;2023-03-01T07:14:55;96588.50;;;-1.60;100.00
16834;BME280;8533;48.426;10.868;2023-03-01T07:17:22;96582.77;;;-1.54;100.00
16834;BME280;8533;48.426;10.868;2023-03-01T07:19:49;96575.05;;;-1.58;100.00
16834;BME280;8533;48.426;10.868;2023-03-01T07:22:17;96572.02;;;-1.58;100.00
16834;BME280;8533;48.426;10.868;2023-03-01T07:24:44;96573.63;;;-1.48;100.00
16834;BME280;8533;48.426;10.868;2023-03-01T07:27:12;96574.59;;;-1.41;100.00
16834;BME280;8533;48.426;10.868;2023-03-01T07:29:40;96570.09;;;-1.35;100.00
16834;BME280;8533;48.426;10.868;2023-03-01T07:32:08;96565.45;;;-1.36;100.00
16834;BME280;8533;48.426;10.868;2023-03-01T07:34:36;96562.73;;;-1.34;100.00
16834;BME280;8533;48.426;10.868;2023-03-01T07:37:03;96568.02;;;-1.16;100.00
16834;BME280;8533;48.426;10.868;2023-03-01T07:39:31;96563.36;;;-1.36;100.00
16834;BME280;8533;48.426;10.868;2023-03-01T07:41:59;96559.98;;;-1.29;100.00
16834;BME280;8533;48.426;10.868;2023-03-01T07:44:27;96555.34;;;-1.29;100.00
16834;BME280;8533;48.426;10.868;2023-03-01T07:46:54;96552.79;;;-1.25;100.00
16834;BME280;8533;48.426;10.868;2023-03-01T07:49:24;96551.17;;;-1.18;100.00
16834;BME280;8533;48.426;10.868;2023-03-01T07:51:54;96550.39;;;-1.14;100.00
16834;BME280;8533;48.426;10.868;2023-03-01T07:54:22;96556.93;;;-1.04;100.00
16834;BME280;8533;48.426;10.868;2023-03-01T07:56:49;96546.03;;;-1.02;100.00
16834;BME280;8533;48.426;10.868;2023-03-01T07:59:18;96547.30;;;-0.94;100.00
16834;BME280;8533;48.426;10.868;2023-03-01T08:01:45;96542.17;;;-1.02;100.00
16834;BME280;8533;48.426;10.868;2023-03-01T08:04:13;96541.72;;;-1.05;100.00
16834;BME280;8533;48.426;10.868;2023-03-01T08:06:40;96541.52;;;-0.96;100.00
16834;BME280;8533;48.426;10.868;2023-03-01T08:09:08;96537.68;;;-0.92;100.00
16834;BME280;8533;48.426;10.868;2023-03-01T08:11:36;96538.47;;;-0.95;100.00
16834;BME280;8533;48.426;10.868;2023-03-01T08:14:03;96535.44;;;-0.91;100.00
16834;BME280;8533;48.426;10.868;2023-03-01T08:16:31;96536.52;;;-0.77;100.00
16834;BME280;8533;48.426;10.868;2023-03-01T08:19:06;96538.45;;;-0.75;100.00
16834;BME280;8533;48.426;10.868;2023-03-01T08:21:34;96539.36;;;-0.64;100.00
16834;BME280;8533;48.426;10.868;2023-03-01T08:24:02;96538.42;;;-0.67;100.00
16834;BME280;8533;48.426;10.868;2023-03-01T08:26:30;96541.79;;;-0.70;100.00
16834;BME280;8533;48.426;10.868;2023-03-01T08:28:57;96537.11;;;-0.63;100.00
16834;BME280;8533;48.426;10.868;2023-03-01T08:31:30;96528.80;;;-0.65;100.00
16834;BME280;8533;48.426;10.868;2023-03-01T08:34:00;96538.42;;;-0.67;100.00
16834;BME280;8533;48.426;10.868;2023-03-01T08:36:30;96542.23;;;-0.51;100.00
16834;BME280;8533;48.426;10.868;2023-03-01T08:38:58;96536.61;;;-0.54;100.00
16834;BME280;8533;48.426;10.868;2023-03-01T08:41:26;96540.33;;;-0.57;100.00
16834;BME280;8533;48.426;10.868;2023-03-01T08:43:55;96538.66;;;-0.46;100.00
16834;BME280;8533;48.426;10.868;2023-03-01T08:46:31;96538.50;;;-0.48;100.00
16834;BME280;8533;48.426;10.868;2023-03-01T08:48:58;96531.57;;;-0.40;100.00
16834;BME280;8533;48.426;10.868;2023-03-01T08:51:26;96530.73;;;-0.28;100.00
16834;BME280;8533;48.426;10.868;2023-03-01T08:53:56;96522.34;;;-0.18;100.00
16834;BME280;8533;48.426;10.868;2023-03-01T08:56:23;96522.30;;;-0.10;100.00
16834;BME280;8533;48.426;10.868;2023-03-01T08:58:51;96525.59;;;0.03;100.00
16834;BME280;8533;48.426;10.868;2023-03-01T09:01:19;96523.44;;;0.15;100.00
16834;BME280;8533;48.426;10.868;2023-03-01T09:03:47;96519.75;;;0.13;99.28
16834;BME280;8533;48.426;10.868;2023-03-01T09:06:15;96520.70;;;0.16;98.73
16834;BME280;8533;48.426;10.868;2023-03-01T09:08:45;96523.29;;;0.12;98.32
16834;BME280;8533;48.426;10.868;2023-03-01T09:11:15;96517.45;;;0.18;97.77
16834;BME280;8533;48.426;10.868;2023-03-01T09:13:44;96518.78;;;0.14;97.63
16834;BME280;8533;48.426;10.868;2023-03-01T09:16:14;96516.59;;;0.30;98.28
16834;BME280;8533;48.426;10.868;2023-03-01T09:18:42;96519.22;;;0.45;97.81
16834;BME280;8533;48.426;10.868;2023-03-01T09:21:14;96506.33;;;0.49;96.73
16834;BME280;8533;48.426;10.868;2023-03-01T09:23:43;96505.69;;;0.65;94.09
16834;BME280;8533;48.426;10.868;2023-03-01T09:26:17;96493.69;;;0.95;91.27
16834;BME280;8533;48.426;10.868;2023-03-01T09:28:43;96499.02;;;1.08;89.61
16834;BME280;8533;48.426;10.868;2023-03-01T09:31:11;96497.16;;;1.61;88.44
16834;BME280;8533;48.426;10.868;2023-03-01T09:33:40;96492.77;;;1.87;84.35
16834;BME280;8533;48.426;10.868;2023-03-01T09:36:14;96479.74;;;2.31;83.34
16834;BME280;8533;48.426;10.868;2023-03-01T09:38:42;96486.19;;;2.20;80.04
16834;BME280;8533;48.426;10.868;2023-03-01T09:43:48;96488.92;;;2.83;75.73
16834;BME280;8533;48.426;10.868;2023-03-01T09:46:18;96483.81;;;2.79;77.17
16834;BME280;8533;48.426;10.868;2023-03-01T09:48:50;96485.55;;;2.61;78.42
16834;BME280;8533;48.426;10.868;2023-03-01T09:51:23;96483.55;;;2.84;78.69
16834;BME280;8533;48.426;10.868;2023-03-01T09:53:48;96476.77;;;2.94;77.89
16834;BME280;8533;48.426;10.868;2023-03-01T09:56:33;96480.59;;;2.38;78.65
16834;BME280;8533;48.426;10.868;2023-03-01T10:04:49;96467.05;;;3.48;73.09
16834;BME280;8533;48.426;10.868;2023-03-01T10:09:47;96462.67;;;4.15;69.34
16834;BME280;8533;48.426;10.868;2023-03-01T10:12:19;96452.69;;;3.62;71.64
16834;BME280;8533;48.426;10.868;2023-03-01T10:22:40;96446.20;;;3.32;74.92
16834;BME280;8533;48.426;10.868;2023-03-01T10:25:13;96446.23;;;3.04;74.23
16834;BME280;8533;48.426;10.868;2023-03-01T10:27:54;96439.08;;;3.40;75.09
16834;BME280;8533;48.426;10.868;2023-03-01T10:30:33;96433.69;;;3.66;72.57
16834;BME280;8533;48.426;10.868;2023-03-01T10:32:51;96438.95;;;3.62;71.85
16834;BME280;8533;48.426;10.868;2023-03-01T10:35:28;96436.05;;;3.30;71.34
16834;BME280;8533;48.426;10.868;2023-03-01T10:38:02;96436.09;;;3.43;71.63
16834;BME280;8533;48.426;10.868;2023-03-01T10:40:24;96441.37;;;3.22;73.19
16834;BME280;8533;48.426;10.868;2023-03-01T10:42:52;96442.59;;;3.33;74.36
16834;BME280;8533;48.426;10.868;2023-03-01T10:45:29;96428.99;;;3.35;72.93
16834;BME280;8533;48.426;10.868;2023-03-01T10:48:25;96420.65;;;3.57;72.02
16834;BME280;8533;48.426;10.868;2023-03-01T10:53:35;96403.57;;;3.38;71.36
16834;BME280;8533;48.426;10.868;2023-03-01T10:56:11;96405.52;;;3.60;72.06
16834;BME280;8533;48.426;10.868;2023-03-01T10:58:57;96405.60;;;3.08;73.04
16834;BME280;8533;48.426;10.868;2023-03-01T11:01:33;96404.72;;;3.29;72.65
16834;BME280;8533;48.426;10.868;2023-03-01T11:06:38;96405.42;;;3.34;72.96
16834;BME280;8533;48.426;10.868;2023-03-01T11:09:23;96394.41;;;3.36;72.30
16834;BME280;8533;48.426;10.868;2023-03-01T11:11:55;96395.23;;;3.50;72.08
16834;BME280;8533;48.426;10.868;2023-03-01T11:14:25;96393.83;;;3.71;72.44
16834;BME280;8533;48.426;10.868;2023-03-01T11:19:29;96388.67;;;3.84;71.70
16834;BME280;8533;48.426;10.868;2023-03-01T11:22:10;96383.13;;;3.94;71.06
16834;BME280;8533;48.426;10.868;2023-03-01T11:27:20;96367.11;;;4.34;69.79
16834;BME280;8533;48.426;10.868;2023-03-01T11:29:55;96362.53;;;4.42;68.34
16834;BME280;8533;48.426;10.868;2023-03-01T11:32:24;96353.44;;;4.55;69.07
16834;BME280;8533;48.426;10.868;2023-03-01T11:35:05;96354.23;;;4.56;68.71
16834;BME280;8533;48.426;10.868;2023-03-01T11:37:36;96347.67;;;4.47;67.67
16834;BME280;8533;48.426;10.868;2023-03-01T11:42:44;96341.02;;;4.15;69.50
16834;BME280;8533;48.426;10.868;2023-03-01T11:45:12;96342.22;;;4.33;69.07
16834;BME280;8533;48.426;10.868;2023-03-01T11:47:51;96336.92;;;4.50;68.88
16834;BME280;8533;48.426;10.868;2023-03-01T12:01:05;96315.59;;;4.54;69.32
16834;BME280;8533;48.426;10.868;2023-03-01T12:08:49;96302.14;;;4.90;67.85
16834;BME280;8533;48.426;10.868;2023-03-01T12:22:38;96276.80;;;5.37;66.42
16834;BME280;8533;48.426;10.868;2023-03-01T12:30:38;96273.00;;;5.55;64.88
16834;BME280;8533;48.426;10.868;2023-03-01T12:33:22;96265.87;;;5.28;66.14
16834;BME280;8533;48.426;10.868;2023-03-01T12:36:10;96270.17;;;5.10;66.81
16834;BME280;8533;48.426;10.868;2023-03-01T12:46:49;96247.24;;;5.69;66.44
16834;BME280;8533;48.426;10.868;2023-03-01T12:50:04;96248.22;;;5.84;64.77
16834;BME280;8533;48.426;10.868;2023-03-01T12:51:51;96243.23;;;5.73;65.41
16834;BME280;8533;48.426;10.868;2023-03-01T12:54:26;96252.80;;;5.48;65.47
16834;BME280;8533;48.426;10.868;2023-03-01T12:56:52;96243.62;;;5.86;65.83
16834;BME280;8533;48.426;10.868;2023-03-01T12:59:34;96249.09;;;6.03;64.71
16834;BME280;8533;48.426;10.868;2023-03-01T13:04:53;96238.42;;;5.61;65.15
16834;BME280;8533;48.426;10.868;2023-03-01T13:17:57;96221.00;;;5.68;64.98
16834;BME280;8533;48.426;10.868;2023-03-01T13:20:56;96232.30;;;5.81;66.18
16834;BME280;8533;48.426;10.868;2023-03-01T13:23:09;96234.99;;;6.08;65.59
16834;BME280;8533;48.426;10.868;2023-03-01T13:25:32;96228.80;;;6.36;64.43
16834;BME280;8533;48.426;10.868;2023-03-01T13:33:48;96237.89;;;5.93;64.34
16834;BME280;8533;48.426;10.868;2023-03-01T13:39:02;96233.30;;;5.80;65.08
16834;BME280;8533;48.426;10.868;2023-03-01T13:46:53;96231.33;;;6.79;62.81
16834;BME280;8533;48.426;10.868;2023-03-01T13:49:28;96231.96;;;6.84;61.43
16834;BME280;8533;48.426;10.868;2023-03-01T13:51:52;96240.05;;;6.67;62.78
16834;BME280;8533;48.426;10.868;2023-03-01T13:54:32;96249.07;;;6.28;63.57
16834;BME280;8533;48.426;10.868;2023-03-01T13:56:56;96241.98;;;6.07;64.68
16834;BME280;8533;48.426;10.868;2023-03-01T13:59:25;96236.83;;;6.01;65.41
16834;BME280;8533;48.426;10.868;2023-03-01T14:01:54;96237.02;;;6.15;65.49
16834;BME280;8533;48.426;10.868;2023-03-01T14:04:27;96241.98;;;6.17;65.19
16834;BME280;8533;48.426;10.868;2023-03-01T14:09:42;96237.58;;;6.17;65.63
16834;BME280;8533;48.426;10.868;2023-03-01T14:12:29;96235.73;;;6.51;64.79
16834;BME280;8533;48.426;10.868;2023-03-01T14:15:19;96232.33;;;6.33;63.75
16834;BME280;8533;48.426;10.868;2023-03-01T14:17:53;96228.34;;;5.87;64.77
16834;BME280;8533;48.426;10.868;2023-03-01T14:20:29;96227.97;;;6.08;65.72
16834;BME280;8533;48.426;10.868;2023-03-01T14:22:57;96225.65;;;6.00;66.29
16834;BME280;8533;48.426;10.868;2023-03-01T14:25:32;96226.30;;;5.96;65.58
16834;BME280;8533;48.426;10.868;2023-03-01T14:28:01;96229.49;;;5.82;65.52
16834;BME280;8533;48.426;10.868;2023-03-01T14:30:44;96223.03;;;6.16;65.54
16834;BME280;8533;48.426;10.868;2023-03-01T14:33:19;96218.69;;;6.19;65.41
16834;BME280;8533;48.426;10.868;2023-03-01T14:36:00;96221.17;;;6.32;65.54
16834;BME280;8533;48.426;10.868;2023-03-01T14:38:30;96219.24;;;6.03;64.88
16834;BME280;8533;48.426;10.868;2023-03-01T14:40:59;96217.53;;;6.33;64.83
16834;BME280;8533;48.426;10.868;2023-03-01T14:43:29;96207.94;;;6.25;65.64
16834;BME280;8533;48.426;10.868;2023-03-01T14:45:57;96210.19;;;6.21;65.67
16834;BME280;8533;48.426;10.868;2023-03-01T14:48:27;96212.13;;;6.07;66.00
16834;BME280;8533;48.426;10.868;2023-03-01T14:50:56;96205.26;;;6.04;66.27
16834;BME280;8533;48.426;10.868;2023-03-01T14:53:26;96201.78;;;6.01;66.60
16834;BME280;8533;48.426;10.868;2023-03-01T14:55:56;96205.23;;;5.95;67.30
16834;BME280;8533;48.426;10.868;2023-03-01T14:58:26;96201.41;;;5.88;67.48
16834;BME280;8533;48.426;10.868;2023-03-01T15:00:56;96204.53;;;5.97;67.74
16834;BME280;8533;48.426;10.868;2023-03-01T15:05:54;96199.63;;;5.98;67.65
16834;BME280;8533;48.426;10.868;2023-03-01T15:08:24;96195.47;;;6.15;67.59
16834;BME280;8533;48.426;10.868;2023-03-01T15:11:17;96190.25;;;5.97;67.29